sensor_id;sensor_type;location;lat;lon;timestamp;P1;durP1;ratioP1;P2;durP2;ratioP2
43646;SDS011;56152;49.996;18.980;2023-09-18T00:01:50;8.57;;;6.38;;
43646;SDS011;56152;49.996;18.980;2023-09-18T00:06:54;11.60;;;6.50;;
43646;SDS011;56152;49.996;18.980;2023-09-18T00:11:58;7.28;;;5.93;;
43646;SDS011;56152;49.996;18.980;2023-09-18T00:22:23;11.38;;;7.50;;
43646;SDS011;56152;49.996;18.980;2023-09-18T00:27:26;10.80;;;6.80;;
43646;SDS011;56152;49.996;18.980;2023-09-18T00:32:34;10.35;;;7.15;;
43646;SDS011;56152;49.996;18.980;2023-09-18T00:37:37;10.85;;;7.63;;
43646;SDS011;56152;49.996;18.980;2023-09-18T00:42:41;15.18;;;8.43;;
43646;SDS011;56152;49.996;18.980;2023-09-18T00:47:45;13.32;;;9.85;;
43646;SDS011;56152;49.996;18.980;2023-09-18T00:52:50;13.38;;;9.48;;
43646;SDS011;56152;49.996;18.980;2023-09-18T00:57:54;12.93;;;8.43;;
43646;SDS011;56152;49.996;18.980;2023-09-18T01:02:59;12.45;;;7.70;;
43646;SDS011;56152;49.996;18.980;2023-09-18T01:08:06;13.30;;;8.27;;
43646;SDS011;56152;49.996;18.980;2023-09-18T01:13:08;12.77;;;8.13;;
43646;SDS011;56152;49.996;18.980;2023-09-18T01:18:19;13.48;;;9.00;;
43646;SDS011;56152;49.996;18.980;2023-09-18T01:23:23;8.23;;;6.72;;
43646;SDS011;56152;49.996;18.980;2023-09-18T01:28:29;10.50;;;8.07;;
43646;SDS011;56152;49.996;18.980;2023-09-18T01:33:32;10.23;;;6.72;;
43646;SDS011;56152;49.996;18.980;2023-09-18T01:38:41;16.95;;;9.63;;
43646;SDS011;56152;49.996;18.980;2023-09-18T01:43:43;12.32;;;7.43;;
43646;SDS011;56152;49.996;18.980;2023-09-18T01:48:47;13.77;;;7.95;;
43646;SDS011;56152;49.996;18.980;2023-09-18T01:53:52;11.25;;;7.47;;
43646;SDS011;56152;49.996;18.980;2023-09-18T01:58:56;12.35;;;8.43;;
43646;SDS011;56152;49.996;18.980;2023-09-18T02:03:58;13.75;;;8.73;;
43646;SDS011;56152;49.996;18.980;2023-09-18T02:09:04;13.50;;;8.00;;
43646;SDS011;56152;49.996;18.980;2023-09-18T02:14:07;13.70;;;7.55;;
43646;SDS011;56152;49.996;18.980;2023-09-18T02:19:10;11.68;;;8.23;;
43646;SDS011;56152;49.996;18.980;2023-09-18T02:24:18;13.73;;;9.38;;
43646;SDS011;56152;49.996;18.980;2023-09-18T02:29:21;14.90;;;11.00;;
43646;SDS011;56152;49.996;18.980;2023-09-18T02:34:28;13.07;;;9.32;;
43646;SDS011;56152;49.996;18.980;2023-09-18T02:39:33;11.93;;;9.05;;
43646;SDS011;56152;49.996;18.980;2023-09-18T02:44:36;9.38;;;6.93;;
43646;SDS011;56152;49.996;18.980;2023-09-18T02:49:39;13.13;;;9.93;;
43646;SDS011;56152;49.996;18.980;2023-09-18T02:54:46;13.90;;;8.38;;
43646;SDS011;56152;49.996;18.980;2023-09-18T02:59:49;11.77;;;8.10;;
43646;SDS011;56152;49.996;18.980;2023-09-18T03:04:51;14.02;;;8.52;;
43646;SDS011;56152;49.996;18.980;2023-09-18T03:09:56;14.95;;;9.95;;
43646;SDS011;56152;49.996;18.980;2023-09-18T03:14:58;15.98;;;11.20;;
43646;SDS011;56152;49.996;18.980;2023-09-18T03:20:00;14.07;;;8.63;;
43646;SDS011;56152;49.996;18.980;2023-09-18T03:25:07;12.50;;;8.30;;
43646;SDS011;56152;49.996;18.980;2023-09-18T03:30:15;12.20;;;9.65;;
43646;SDS011;56152;49.996;18.980;2023-09-18T03:35:19;17.80;;;11.02;;
43646;SDS011;56152;49.996;18.980;2023-09-18T03:40:29;11.50;;;9.13;;
43646;SDS011;56152;49.996;18.980;2023-09-18T03:45:53;11.23;;;8.52;;
43646;SDS011;56152;49.996;18.980;2023-09-18T03:50:56;11.75;;;8.93;;
43646;SDS011;56152;49.996;18.980;2023-09-18T03:56:10;10.45;;;9.35;;
43646;SDS011;56152;49.996;18.980;2023-09-18T04:01:16;15.55;;;11.80;;
43646;SDS011;56152;49.996;18.980;2023-09-18T04:06:20;13.75;;;9.90;;
43646;SDS011;56152;49.996;18.980;2023-09-18T04:11:28;11.10;;;8.93;;
43646;SDS011;56152;49.996;18.980;2023-09-18T04:16:32;10.70;;;8.32;;
43646;SDS011;56152;49.996;18.980;2023-09-18T04:21:40;12.77;;;8.98;;
43646;SDS011;56152;49.996;18.980;2023-09-18T04:26:45;15.98;;;12.07;;
43646;SDS011;56152;49.996;18.980;2023-09-18T04:31:47;15.10;;;12.02;;
43646;SDS011;56152;49.996;18.980;2023-09-18T04:36:52;16.48;;;12.32;;
43646;SDS011;56152;49.996;18.980;2023-09-18T04:41:58;20.35;;;12.48;;
43646;SDS011;56152;49.996;18.980;2023-09-18T04:47:00;12.88;;;10.18;;
43646;SDS011;56152;49.996;18.980;2023-09-18T04:52:06;12.77;;;9.95;;
43646;SDS011;56152;49.996;18.980;2023-09-18T04:57:11;16.40;;;9.40;;
43646;SDS011;56152;49.996;18.980;2023-09-18T05:02:13;14.60;;;9.50;;
43646;SDS011;56152;49.996;18.980;2023-09-18T05:07:15;12.15;;;9.85;;
43646;SDS011;56152;49.996;18.980;2023-09-18T05:12:19;13.93;;;8.98;;
43646;SDS011;56152;49.996;18.980;2023-09-18T05:17:27;14.52;;;11.88;;
43646;SDS011;56152;49.996;18.980;2023-09-18T05:22:41;13.93;;;9.57;;
43646;SDS011;56152;49.996;18.980;2023-09-18T05:27:46;11.77;;;9.52;;
43646;SDS011;56152;49.996;18.980;2023-09-18T05:32:55;18.23;;;10.48;;
43646;SDS011;56152;49.996;18.980;2023-09-18T05:38:04;16.92;;;12.10;;
43646;SDS011;56152;49.996;18.980;2023-09-18T05:43:10;14.95;;;9.80;;
43646;SDS011;56152;49.996;18.980;2023-09-18T05:48:13;12.60;;;10.38;;
43646;SDS011;56152;49.996;18.980;2023-09-18T05:53:19;15.07;;;11.35;;
43646;SDS011;56152;49.996;18.980;2023-09-18T05:58:23;22.83;;;11.60;;
43646;SDS011;56152;49.996;18.980;2023-09-18T06:03:28;16.45;;;11.63;;
43646;SDS011;56152;49.996;18.980;2023-09-18T06:08:35;14.55;;;9.57;;
43646;SDS011;56152;49.996;18.980;2023-09-18T06:14:15;13.98;;;11.05;;
43646;SDS011;56152;49.996;18.980;2023-09-18T06:57:57;15.85;;;10.65;;
43646;SDS011;56152;49.996;18.980;2023-09-18T07:03:13;13.85;;;9.70;;
43646;SDS011;56152;49.996;18.980;2023-09-18T07:08:16;10.88;;;8.40;;
43646;SDS011;56152;49.996;18.980;2023-09-18T07:13:25;13.93;;;8.30;;
43646;SDS011;56152;49.996;18.980;2023-09-18T07:18:30;17.05;;;9.95;;
43646;SDS011;56152;49.996;18.980;2023-09-18T07:23:33;12.23;;;8.80;;
43646;SDS011;56152;49.996;18.980;2023-09-18T07:28:38;15.27;;;9.43;;
43646;SDS011;56152;49.996;18.980;2023-09-18T07:33:41;14.95;;;8.50;;
43646;SDS011;56152;49.996;18.980;2023-09-18T07:38:43;14.25;;;8.43;;
43646;SDS011;56152;49.996;18.980;2023-09-18T07:43:52;12.20;;;8.85;;
43646;SDS011;56152;49.996;18.980;2023-09-18T07:48:54;13.25;;;10.02;;
43646;SDS011;56152;49.996;18.980;2023-09-18T07:53:56;11.77;;;9.45;;
43646;SDS011;56152;49.996;18.980;2023-09-18T07:59:02;12.27;;;9.30;;
43646;SDS011;56152;49.996;18.980;2023-09-18T08:04:05;11.82;;;8.70;;
43646;SDS011;56152;49.996;18.980;2023-09-18T08:09:07;10.20;;;9.13;;
43646;SDS011;56152;49.996;18.980;2023-09-18T08:14:15;13.55;;;9.98;;
43646;SDS011;56152;49.996;18.980;2023-09-18T08:19:17;13.10;;;8.02;;
43646;SDS011;56152;49.996;18.980;2023-09-18T08:24:19;11.00;;;9.52;;
43646;SDS011;56152;49.996;18.980;2023-09-18T08:29:23;15.25;;;9.18;;
43646;SDS011;56152;49.996;18.980;2023-09-18T08:34:25;10.10;;;8.25;;
43646;SDS011;56152;49.996;18.980;2023-09-18T08:39:27;13.48;;;7.93;;
43646;SDS011;56152;49.996;18.980;2023-09-18T08:44:33;9.02;;;8.13;;
43646;SDS011;56152;49.996;18.980;2023-09-18T08:49:38;7.97;;;7.05;;
43646;SDS011;56152;49.996;18.980;2023-09-18T08:54:43;8.70;;;7.57;;
43646;SDS011;56152;49.996;18.980;2023-09-18T08:59:46;10.57;;;9.40;;
43646;SDS011;56152;49.996;18.980;2023-09-18T09:04:53;8.27;;;7.47;;
43646;SDS011;56152;49.996;18.980;2023-09-18T09:09:56;11.63;;;9.07;;
43646;SDS011;56152;49.996;18.980;2023-09-18T09:15:03;8.88;;;7.57;;
43646;SDS011;56152;49.996;18.980;2023-09-18T09:20:08;9.73;;;8.88;;
43646;SDS011;56152;49.996;18.980;2023-09-18T09:25:22;9.82;;;8.38;;
43646;SDS011;56152;49.996;18.980;2023-09-18T09:30:28;9.35;;;8.45;;
43646;SDS011;56152;49.996;18.980;2023-09-18T09:35:31;9.38;;;7.90;;
43646;SDS011;56152;49.996;18.980;2023-09-18T09:40:34;7.60;;;6.80;;
43646;SDS011;56152;49.996;18.980;2023-09-18T09:45:41;9.40;;;7.82;;
43646;SDS011;56152;49.996;18.980;2023-09-18T09:50:44;12.20;;;9.13;;
43646;SDS011;56152;49.996;18.980;2023-09-18T09:55:53;8.55;;;7.70;;
43646;SDS011;56152;49.996;18.980;2023-09-18T10:00:59;8.60;;;7.07;;
43646;SDS011;56152;49.996;18.980;2023-09-18T10:06:09;11.05;;;8.75;;
43646;SDS011;56152;49.996;18.980;2023-09-18T10:11:13;8.60;;;7.70;;
43646;SDS011;56152;49.996;18.980;2023-09-18T10:16:21;8.75;;;6.55;;
43646;SDS011;56152;49.996;18.980;2023-09-18T10:21:29;8.65;;;6.63;;
43646;SDS011;56152;49.996;18.980;2023-09-18T10:26:38;7.75;;;6.95;;
43646;SDS011;56152;49.996;18.980;2023-09-18T10:31:49;11.35;;;7.35;;
43646;SDS011;56152;49.996;18.980;2023-09-18T10:36:53;10.43;;;7.55;;
43646;SDS011;56152;49.996;18.980;2023-09-18T10:41:56;11.80;;;6.75;;
43646;SDS011;56152;49.996;18.980;2023-09-18T10:47:09;9.57;;;7.40;;
43646;SDS011;56152;49.996;18.980;2023-09-18T10:52:14;7.57;;;6.88;;
43646;SDS011;56152;49.996;18.980;2023-09-18T10:57:21;8.03;;;6.40;;
43646;SDS011;56152;49.996;18.980;2023-09-18T11:02:26;8.23;;;7.18;;
43646;SDS011;56152;49.996;18.980;2023-09-18T11:07:29;10.65;;;6.90;;
43646;SDS011;56152;49.996;18.980;2023-09-18T11:12:41;9.75;;;6.38;;
43646;SDS011;56152;49.996;18.980;2023-09-18T11:17:51;6.53;;;5.93;;
43646;SDS011;56152;49.996;18.980;2023-09-18T11:23:09;7.90;;;6.35;;
43646;SDS011;56152;49.996;18.980;2023-09-18T11:28:22;7.60;;;5.97;;
43646;SDS011;56152;49.996;18.980;2023-09-18T11:33:32;6.50;;;5.88;;
43646;SDS011;56152;49.996;18.980;2023-09-18T11:38:50;8.05;;;5.90;;
43646;SDS011;56152;49.996;18.980;2023-09-18T11:43:55;7.63;;;5.90;;
43646;SDS011;56152;49.996;18.980;2023-09-18T11:49:47;7.65;;;6.50;;
43646;SDS011;56152;49.996;18.980;2023-09-18T11:54:57;7.85;;;5.78;;
43646;SDS011;56152;49.996;18.980;2023-09-18T12:00:01;7.28;;;5.68;;
43646;SDS011;56152;49.996;18.980;2023-09-18T12:05:15;6.03;;;5.38;;
43646;SDS011;56152;49.996;18.980;2023-09-18T12:10:19;6.70;;;5.13;;
43646;SDS011;56152;49.996;18.980;2023-09-18T12:15:22;5.90;;;5.30;;
43646;SDS011;56152;49.996;18.980;2023-09-18T12:20:26;5.78;;;5.00;;
43646;SDS011;56152;49.996;18.980;2023-09-18T12:25:29;6.70;;;5.97;;
43646;SDS011;56152;49.996;18.980;2023-09-18T12:30:32;6.32;;;4.80;;
43646;SDS011;56152;49.996;18.980;2023-09-18T12:35:43;6.43;;;5.82;;
43646;SDS011;56152;49.996;18.980;2023-09-18T12:40:46;6.32;;;5.72;;
43646;SDS011;56152;49.996;18.980;2023-09-18T12:45:53;5.60;;;5.10;;
43646;SDS011;56152;49.996;18.980;2023-09-18T12:51:04;6.35;;;5.10;;
43646;SDS011;56152;49.996;18.980;2023-09-18T12:56:08;5.68;;;4.78;;
43646;SDS011;56152;49.996;18.980;2023-09-18T13:01:13;7.43;;;5.97;;
43646;SDS011;56152;49.996;18.980;2023-09-18T13:06:19;6.78;;;5.13;;
43646;SDS011;56152;49.996;18.980;2023-09-18T13:11:22;6.72;;;5.50;;
43646;SDS011;56152;49.996;18.980;2023-09-18T13:16:26;6.78;;;4.72;;
43646;SDS011;56152;49.996;18.980;2023-09-18T13:21:33;5.93;;;4.60;;
43646;SDS011;56152;49.996;18.980;2023-09-18T13:26:38;5.37;;;4.40;;
43646;SDS011;56152;49.996;18.980;2023-09-18T13:31:43;8.02;;;5.25;;
43646;SDS011;56152;49.996;18.980;2023-09-18T13:36:53;6.88;;;4.70;;
43646;SDS011;56152;49.996;18.980;2023-09-18T13:41:55;5.25;;;4.15;;
43646;SDS011;56152;49.996;18.980;2023-09-18T13:46:57;5.10;;;4.60;;
43646;SDS011;56152;49.996;18.980;2023-09-18T13:52:05;4.90;;;4.07;;
43646;SDS011;56152;49.996;18.980;2023-09-18T13:57:09;4.35;;;3.95;;
43646;SDS011;56152;49.996;18.980;2023-09-18T14:02:12;5.88;;;4.22;;
43646;SDS011;56152;49.996;18.980;2023-09-18T14:07:16;4.75;;;4.30;;
43646;SDS011;56152;49.996;18.980;2023-09-18T14:12:19;8.63;;;4.95;;
43646;SDS011;56152;49.996;18.980;2023-09-18T14:17:23;5.85;;;4.65;;
43646;SDS011;56152;49.996;18.980;2023-09-18T14:22:26;28.40;;;6.18;;
43646;SDS011;56152;49.996;18.980;2023-09-18T14:27:28;10.10;;;4.40;;
43646;SDS011;56152;49.996;18.980;2023-09-18T14:32:31;6.60;;;4.43;;
43646;SDS011;56152;49.996;18.980;2023-09-18T14:37:48;5.65;;;4.35;;
43646;SDS011;56152;49.996;18.980;2023-09-18T14:42:50;8.40;;;5.28;;
43646;SDS011;56152;49.996;18.980;2023-09-18T14:47:54;11.55;;;5.22;;
43646;SDS011;56152;49.996;18.980;2023-09-18T14:52:58;7.25;;;4.88;;
43646;SDS011;56152;49.996;18.980;2023-09-18T14:58:04;5.25;;;4.75;;
43646;SDS011;56152;49.996;18.980;2023-09-18T15:03:08;5.07;;;4.10;;
43646;SDS011;56152;49.996;18.980;2023-09-18T15:08:13;7.63;;;4.80;;
43646;SDS011;56152;49.996;18.980;2023-09-18T15:13:16;7.60;;;5.55;;
43646;SDS011;56152;49.996;18.980;2023-09-18T15:18:19;6.03;;;4.97;;
43646;SDS011;56152;49.996;18.980;2023-09-18T15:23:24;5.20;;;4.70;;
43646;SDS011;56152;49.996;18.980;2023-09-18T15:28:27;7.15;;;5.00;;
43646;SDS011;56152;49.996;18.980;2023-09-18T15:33:30;5.95;;;5.30;;
43646;SDS011;56152;49.996;18.980;2023-09-18T15:38:35;9.48;;;6.72;;
43646;SDS011;56152;49.996;18.980;2023-09-18T15:43:39;5.45;;;4.95;;
43646;SDS011;56152;49.996;18.980;2023-09-18T15:48:42;6.43;;;5.35;;
43646;SDS011;56152;49.996;18.980;2023-09-18T15:53:46;5.20;;;4.55;;
43646;SDS011;56152;49.996;18.980;2023-09-18T15:58:48;8.40;;;6.57;;
43646;SDS011;56152;49.996;18.980;2023-09-18T16:03:51;6.80;;;6.15;;
43646;SDS011;56152;49.996;18.980;2023-09-18T16:08:55;7.43;;;5.80;;
43646;SDS011;56152;49.996;18.980;2023-09-18T16:13:59;8.93;;;6.20;;
43646;SDS011;56152;49.996;18.980;2023-09-18T16:19:07;5.90;;;5.35;;
43646;SDS011;56152;49.996;18.980;2023-09-18T16:24:12;11.20;;;7.13;;
43646;SDS011;56152;49.996;18.980;2023-09-18T16:29:16;7.85;;;6.25;;
43646;SDS011;56152;49.996;18.980;2023-09-18T16:34:19;7.30;;;6.60;;
43646;SDS011;56152;49.996;18.980;2023-09-18T16:39:24;11.45;;;6.40;;
43646;SDS011;56152;49.996;18.980;2023-09-18T16:44:26;6.55;;;5.82;;
43646;SDS011;56152;49.996;18.980;2023-09-18T16:49:29;9.05;;;6.75;;
43646;SDS011;56152;49.996;18.980;2023-09-18T16:54:34;7.88;;;6.00;;
43646;SDS011;56152;49.996;18.980;2023-09-18T16:59:36;6.45;;;5.13;;
43646;SDS011;56152;49.996;18.980;2023-09-18T17:04:39;6.20;;;5.60;;
43646;SDS011;56152;49.996;18.980;2023-09-18T17:09:43;10.57;;;6.55;;
43646;SDS011;56152;49.996;18.980;2023-09-18T17:14:45;7.93;;;6.88;;
43646;SDS011;56152;49.996;18.980;2023-09-18T17:19:48;10.85;;;7.18;;
43646;SDS011;56152;49.996;18.980;2023-09-18T17:24:52;10.57;;;6.40;;
43646;SDS011;56152;49.996;18.980;2023-09-18T17:29:54;7.57;;;6.10;;
43646;SDS011;56152;49.996;18.980;2023-09-18T17:34:57;11.88;;;6.03;;
43646;SDS011;56152;49.996;18.980;2023-09-18T17:40:04;7.55;;;6.85;;
43646;SDS011;56152;49.996;18.980;2023-09-18T17:45:10;8.30;;;7.07;;
43646;SDS011;56152;49.996;18.980;2023-09-18T17:50:13;7.60;;;6.57;;
43646;SDS011;56152;49.996;18.980;2023-09-18T17:55:18;11.50;;;6.68;;
43646;SDS011;56152;49.996;18.980;2023-09-18T18:00:21;10.60;;;7.03;;
43646;SDS011;56152;49.996;18.980;2023-09-18T18:05:23;11.88;;;6.85;;
43646;SDS011;56152;49.996;18.980;2023-09-18T18:10:30;8.20;;;7.40;;
43646;SDS011;56152;49.996;18.980;2023-09-18T18:15:35;14.18;;;7.65;;
43646;SDS011;56152;49.996;18.980;2023-09-18T18:20:38;19.60;;;12.32;;
43646;SDS011;56152;49.996;18.980;2023-09-18T18:25:49;18.65;;;9.63;;
43646;SDS011;56152;49.996;18.980;2023-09-18T18:31:04;21.53;;;11.40;;
43646;SDS011;56152;49.996;18.980;2023-09-18T18:36:06;17.27;;;10.80;;
43646;SDS011;56152;49.996;18.980;2023-09-18T18:41:10;22.05;;;13.07;;
43646;SDS011;56152;49.996;18.980;2023-09-18T18:46:12;21.63;;;13.43;;
43646;SDS011;56152;49.996;18.980;2023-09-18T18:51:15;24.63;;;17.73;;
43646;SDS011;56152;49.996;18.980;2023-09-18T18:56:20;22.70;;;14.27;;
43646;SDS011;56152;49.996;18.980;2023-09-18T19:01:22;23.33;;;17.20;;
43646;SDS011;56152;49.996;18.980;2023-09-18T19:06:27;29.95;;;19.27;;
43646;SDS011;56152;49.996;18.980;2023-09-18T19:11:33;41.22;;;24.67;;
43646;SDS011;56152;49.996;18.980;2023-09-18T19:16:36;31.00;;;21.15;;
43646;SDS011;56152;49.996;18.980;2023-09-18T19:21:39;33.53;;;18.88;;
43646;SDS011;56152;49.996;18.980;2023-09-18T19:26:43;25.42;;;18.38;;
43646;SDS011;56152;49.996;18.980;2023-09-18T19:31:48;28.05;;;19.48;;
43646;SDS011;56152;49.996;18.980;2023-09-18T19:36:51;33.05;;;18.63;;
43646;SDS011;56152;49.996;18.980;2023-09-18T19:41:57;28.35;;;17.17;;
43646;SDS011;56152;49.996;18.980;2023-09-18T19:47:02;18.75;;;12.95;;
43646;SDS011;56152;49.996;18.980;2023-09-18T19:52:06;15.80;;;12.10;;
43646;SDS011;56152;49.996;18.980;2023-09-18T19:57:14;15.52;;;11.95;;
43646;SDS011;56152;49.996;18.980;2023-09-18T20:02:17;13.50;;;11.63;;
43646;SDS011;56152;49.996;18.980;2023-09-18T20:07:20;15.65;;;11.07;;
43646;SDS011;56152;49.996;18.980;2023-09-18T20:12:28;22.67;;;15.00;;
43646;SDS011;56152;49.996;18.980;2023-09-18T20:17:31;26.75;;;17.65;;
43646;SDS011;56152;49.996;18.980;2023-09-18T20:22:34;22.63;;;16.80;;
43646;SDS011;56152;49.996;18.980;2023-09-18T20:27:40;27.88;;;19.00;;
43646;SDS011;56152;49.996;18.980;2023-09-18T20:32:42;22.20;;;16.15;;
43646;SDS011;56152;49.996;18.980;2023-09-18T20:37:46;27.75;;;17.25;;
43646;SDS011;56152;49.996;18.980;2023-09-18T20:42:52;25.60;;;18.58;;
43646;SDS011;56152;49.996;18.980;2023-09-18T20:47:55;22.25;;;16.70;;
43646;SDS011;56152;49.996;18.980;2023-09-18T20:52:56;27.20;;;17.88;;
43646;SDS011;56152;49.996;18.980;2023-09-18T20:58:01;22.90;;;17.13;;
43646;SDS011;56152;49.996;18.980;2023-09-18T21:03:04;22.17;;;16.00;;
43646;SDS011;56152;49.996;18.980;2023-09-18T21:08:07;21.75;;;16.27;;
43646;SDS011;56152;49.996;18.980;2023-09-18T21:13:11;22.80;;;17.05;;
43646;SDS011;56152;49.996;18.980;2023-09-18T21:18:13;23.33;;;16.90;;
43646;SDS011;56152;49.996;18.980;2023-09-18T21:23:15;23.00;;;16.98;;
43646;SDS011;56152;49.996;18.980;2023-09-18T21:28:20;22.42;;;17.17;;
43646;SDS011;56152;49.996;18.980;2023-09-18T21:33:23;18.90;;;15.23;;
43646;SDS011;56152;49.996;18.980;2023-09-18T21:38:27;20.52;;;15.40;;
43646;SDS011;56152;49.996;18.980;2023-09-18T21:43:31;17.05;;;14.07;;
43646;SDS011;56152;49.996;18.980;2023-09-18T21:48:33;21.33;;;17.48;;
43646;SDS011;56152;49.996;18.980;2023-09-18T21:53:38;18.30;;;15.02;;
43646;SDS011;56152;49.996;18.980;2023-09-18T21:58:41;17.50;;;14.98;;
43646;SDS011;56152;49.996;18.980;2023-09-18T22:03:44;18.40;;;13.27;;
43646;SDS011;56152;49.996;18.980;2023-09-18T22:08:48;17.60;;;14.43;;
43646;SDS011;56152;49.996;18.980;2023-09-18T22:13:54;18.70;;;14.05;;
43646;SDS011;56152;49.996;18.980;2023-09-18T22:18:56;19.13;;;15.02;;
43646;SDS011;56152;49.996;18.980;2023-09-18T22:23:58;16.00;;;13.50;;
43646;SDS011;56152;49.996;18.980;2023-09-18T22:29:02;22.38;;;15.32;;
43646;SDS011;56152;49.996;18.980;2023-09-18T22:34:04;24.45;;;19.83;;
43646;SDS011;56152;49.996;18.980;2023-09-18T22:56:02;15.37;;;13.70;;
43646;SDS011;56152;49.996;18.980;2023-09-18T23:01:04;18.65;;;13.55;;
43646;SDS011;56152;49.996;18.980;2023-09-18T23:06:07;18.23;;;14.43;;
43646;SDS011;56152;49.996;18.980;2023-09-18T23:11:12;21.55;;;15.60;;
43646;SDS011;56152;49.996;18.980;2023-09-18T23:16:19;17.00;;;13.43;;
43646;SDS011;56152;49.996;18.980;2023-09-18T23:21:25;21.30;;;14.48;;
43646;SDS011;56152;49.996;18.980;2023-09-18T23:26:30;21.90;;;17.35;;
43646;SDS011;56152;49.996;18.980;2023-09-18T23:31:32;22.05;;;14.25;;
43646;SDS011;56152;49.996;18.980;2023-09-18T23:36:36;21.75;;;15.73;;
43646;SDS011;56152;49.996;18.980;2023-09-18T23:41:41;17.38;;;14.70;;
43646;SDS011;56152;49.996;18.980;2023-09-18T23:46:44;19.45;;;13.07;;
43646;SDS011;56152;49.996;18.980;2023-09-18T23:51:48;16.63;;;12.57;;
43646;SDS011;56152;49.996;18.980;2023-09-18T23:56:52;17.15;;;13.68;;
